sensor_id;sensor_type;location;lat;lon;timestamp;P1;durP1;ratioP1;P2;durP2;ratioP2
39300;SDS011;25019;42.626;23.380;2023-07-29T00:00:58;2.10;;;1.90;;
39300;SDS011;25019;42.626;23.380;2023-07-29T00:03:25;2.07;;;1.87;;
39300;SDS011;25019;42.626;23.380;2023-07-29T00:05:51;2.97;;;2.20;;
39300;SDS011;25019;42.626;23.380;2023-07-29T00:08:16;2.50;;;2.10;;
39300;SDS011;25019;42.626;23.380;2023-07-29T00:10:42;2.47;;;2.20;;
39300;SDS011;25019;42.626;23.380;2023-07-29T00:13:08;2.40;;;2.17;;
39300;SDS011;25019;42.626;23.380;2023-07-29T00:15:33;2.67;;;2.47;;
39300;SDS011;25019;42.626;23.380;2023-07-29T00:17:59;2.60;;;2.40;;
39300;SDS011;25019;42.626;23.380;2023-07-29T00:20:25;3.60;;;2.40;;
39300;SDS011;25019;42.626;23.380;2023-07-29T00:22:50;2.90;;;2.30;;
39300;SDS011;25019;42.626;23.380;2023-07-29T00:25:19;3.50;;;2.20;;
39300;SDS011;25019;42.626;23.380;2023-07-29T00:27:44;2.93;;;2.27;;
39300;SDS011;25019;42.626;23.380;2023-07-29T00:30:10;2.90;;;2.60;;
39300;SDS011;25019;42.626;23.380;2023-07-29T00:32:36;3.00;;;2.20;;
39300;SDS011;25019;42.626;23.380;2023-07-29T00:35:02;3.50;;;2.30;;
39300;SDS011;25019;42.626;23.380;2023-07-29T00:37:29;2.43;;;2.23;;
39300;SDS011;25019;42.626;23.380;2023-07-29T00:39:56;2.43;;;2.13;;
39300;SDS011;25019;42.626;23.380;2023-07-29T00:42:22;3.13;;;2.50;;
39300;SDS011;25019;42.626;23.380;2023-07-29T00:44:48;3.60;;;2.43;;
39300;SDS011;25019;42.626;23.380;2023-07-29T00:47:14;4.13;;;2.47;;
39300;SDS011;25019;42.626;23.380;2023-07-29T00:49:41;2.60;;;2.40;;
39300;SDS011;25019;42.626;23.380;2023-07-29T00:52:10;4.30;;;2.30;;
39300;SDS011;25019;42.626;23.380;2023-07-29T00:54:42;2.80;;;2.50;;
39300;SDS011;25019;42.626;23.380;2023-07-29T00:57:11;3.30;;;2.30;;
39300;SDS011;25019;42.626;23.380;2023-07-29T00:59:39;2.57;;;2.33;;
39300;SDS011;25019;42.626;23.380;2023-07-29T01:02:05;4.23;;;2.33;;
39300;SDS011;25019;42.626;23.380;2023-07-29T01:04:31;2.70;;;2.30;;
39300;SDS011;25019;42.626;23.380;2023-07-29T01:10:07;6.17;;;3.07;;
39300;SDS011;25019;42.626;23.380;2023-07-29T01:18:22;3.80;;;2.60;;
39300;SDS011;25019;42.626;23.380;2023-07-29T01:20:59;2.90;;;2.40;;
39300;SDS011;25019;42.626;23.380;2023-07-29T01:23:30;2.70;;;2.50;;
39300;SDS011;25019;42.626;23.380;2023-07-29T01:25:57;4.70;;;2.50;;
39300;SDS011;25019;42.626;23.380;2023-07-29T01:28:23;3.10;;;2.60;;
39300;SDS011;25019;42.626;23.380;2023-07-29T01:30:51;3.00;;;2.40;;
39300;SDS011;25019;42.626;23.380;2023-07-29T01:33:25;3.17;;;2.60;;
39300;SDS011;25019;42.626;23.380;2023-07-29T01:35:54;2.83;;;2.40;;
39300;SDS011;25019;42.626;23.380;2023-07-29T01:38:27;2.63;;;2.43;;
39300;SDS011;25019;42.626;23.380;2023-07-29T01:40:56;2.90;;;2.50;;
39300;SDS011;25019;42.626;23.380;2023-07-29T01:43:27;2.87;;;2.40;;
39300;SDS011;25019;42.626;23.380;2023-07-29T01:45:54;2.80;;;2.50;;
39300;SDS011;25019;42.626;23.380;2023-07-29T01:48:20;2.60;;;2.30;;
39300;SDS011;25019;42.626;23.380;2023-07-29T01:50:48;2.60;;;2.40;;
39300;SDS011;25019;42.626;23.380;2023-07-29T01:53:13;4.10;;;2.40;;
39300;SDS011;25019;42.626;23.380;2023-07-29T01:55:40;4.10;;;2.70;;
39300;SDS011;25019;42.626;23.380;2023-07-29T01:58:08;4.80;;;2.60;;
39300;SDS011;25019;42.626;23.380;2023-07-29T02:00:35;4.70;;;2.80;;
39300;SDS011;25019;42.626;23.380;2023-07-29T02:03:01;2.80;;;2.20;;
39300;SDS011;25019;42.626;23.380;2023-07-29T02:05:27;2.60;;;2.40;;
39300;SDS011;25019;42.626;23.380;2023-07-29T02:07:52;2.43;;;2.20;;
39300;SDS011;25019;42.626;23.380;2023-07-29T02:10:18;4.47;;;2.77;;
39300;SDS011;25019;42.626;23.380;2023-07-29T02:12:44;2.73;;;2.53;;
39300;SDS011;25019;42.626;23.380;2023-07-29T02:15:09;3.17;;;2.73;;
39300;SDS011;25019;42.626;23.380;2023-07-29T02:17:38;2.90;;;2.60;;
39300;SDS011;25019;42.626;23.380;2023-07-29T02:20:03;3.40;;;3.10;;
39300;SDS011;25019;42.626;23.380;2023-07-29T02:22:29;3.13;;;2.70;;
39300;SDS011;25019;42.626;23.380;2023-07-29T02:24:55;3.00;;;2.67;;
39300;SDS011;25019;42.626;23.380;2023-07-29T02:27:21;3.00;;;2.70;;
39300;SDS011;25019;42.626;23.380;2023-07-29T02:29:47;3.33;;;2.70;;
39300;SDS011;25019;42.626;23.380;2023-07-29T02:32:12;3.30;;;2.80;;
39300;SDS011;25019;42.626;23.380;2023-07-29T02:34:38;4.10;;;2.80;;
39300;SDS011;25019;42.626;23.380;2023-07-29T02:37:04;2.77;;;2.50;;
39300;SDS011;25019;42.626;23.380;2023-07-29T02:39:30;3.40;;;3.10;;
39300;SDS011;25019;42.626;23.380;2023-07-29T02:41:56;3.17;;;2.63;;
39300;SDS011;25019;42.626;23.380;2023-07-29T02:44:24;4.43;;;2.73;;
39300;SDS011;25019;42.626;23.380;2023-07-29T02:46:50;5.13;;;3.10;;
39300;SDS011;25019;42.626;23.380;2023-07-29T02:49:17;3.30;;;2.67;;
39300;SDS011;25019;42.626;23.380;2023-07-29T02:51:43;2.87;;;2.60;;
39300;SDS011;25019;42.626;23.380;2023-07-29T02:54:09;4.27;;;2.80;;
39300;SDS011;25019;42.626;23.380;2023-07-29T02:56:34;5.00;;;2.80;;
39300;SDS011;25019;42.626;23.380;2023-07-29T02:59:01;3.10;;;2.33;;
39300;SDS011;25019;42.626;23.380;2023-07-29T03:01:28;2.60;;;2.40;;
39300;SDS011;25019;42.626;23.380;2023-07-29T03:03:54;3.27;;;2.40;;
39300;SDS011;25019;42.626;23.380;2023-07-29T03:06:19;3.70;;;3.00;;
39300;SDS011;25019;42.626;23.380;2023-07-29T03:08:45;4.37;;;2.80;;
39300;SDS011;25019;42.626;23.380;2023-07-29T03:11:14;3.00;;;2.27;;
39300;SDS011;25019;42.626;23.380;2023-07-29T03:13:41;3.20;;;2.60;;
39300;SDS011;25019;42.626;23.380;2023-07-29T03:16:11;2.80;;;2.20;;
39300;SDS011;25019;42.626;23.380;2023-07-29T03:18:39;3.10;;;2.80;;
39300;SDS011;25019;42.626;23.380;2023-07-29T03:21:05;3.43;;;3.07;;
39300;SDS011;25019;42.626;23.380;2023-07-29T03:23:31;2.67;;;2.47;;
39300;SDS011;25019;42.626;23.380;2023-07-29T03:25:58;3.67;;;2.80;;
39300;SDS011;25019;42.626;23.380;2023-07-29T03:28:28;2.80;;;2.60;;
39300;SDS011;25019;42.626;23.380;2023-07-29T03:30:56;3.67;;;2.80;;
39300;SDS011;25019;42.626;23.380;2023-07-29T03:33:22;3.43;;;2.80;;
39300;SDS011;25019;42.626;23.380;2023-07-29T03:35:48;4.17;;;2.50;;
39300;SDS011;25019;42.626;23.380;2023-07-29T03:38:14;3.03;;;2.73;;
39300;SDS011;25019;42.626;23.380;2023-07-29T03:40:40;3.50;;;2.87;;
39300;SDS011;25019;42.626;23.380;2023-07-29T03:43:07;3.23;;;2.93;;
39300;SDS011;25019;42.626;23.380;2023-07-29T03:45:33;3.90;;;3.60;;
39300;SDS011;25019;42.626;23.380;2023-07-29T03:48:00;3.80;;;3.00;;
39300;SDS011;25019;42.626;23.380;2023-07-29T03:50:26;5.83;;;3.27;;
39300;SDS011;25019;42.626;23.380;2023-07-29T03:52:53;3.80;;;3.30;;
39300;SDS011;25019;42.626;23.380;2023-07-29T03:55:18;3.53;;;3.10;;
39300;SDS011;25019;42.626;23.380;2023-07-29T03:57:44;4.53;;;3.03;;
39300;SDS011;25019;42.626;23.380;2023-07-29T04:00:10;4.17;;;3.20;;
39300;SDS011;25019;42.626;23.380;2023-07-29T04:02:41;3.87;;;3.30;;
39300;SDS011;25019;42.626;23.380;2023-07-29T04:05:08;7.60;;;3.30;;
39300;SDS011;25019;42.626;23.380;2023-07-29T04:07:35;2.90;;;2.60;;
39300;SDS011;25019;42.626;23.380;2023-07-29T04:10:01;3.30;;;2.90;;
39300;SDS011;25019;42.626;23.380;2023-07-29T04:12:27;3.80;;;2.60;;
39300;SDS011;25019;42.626;23.380;2023-07-29T04:14:53;3.33;;;2.73;;
39300;SDS011;25019;42.626;23.380;2023-07-29T04:17:19;3.17;;;2.67;;
39300;SDS011;25019;42.626;23.380;2023-07-29T04:19:45;2.80;;;2.60;;
39300;SDS011;25019;42.626;23.380;2023-07-29T04:22:11;3.73;;;2.80;;
39300;SDS011;25019;42.626;23.380;2023-07-29T04:24:37;3.03;;;2.73;;
39300;SDS011;25019;42.626;23.380;2023-07-29T04:27:03;4.00;;;2.90;;
39300;SDS011;25019;42.626;23.380;2023-07-29T04:29:29;2.80;;;2.60;;
39300;SDS011;25019;42.626;23.380;2023-07-29T04:31:55;3.00;;;2.70;;
39300;SDS011;25019;42.626;23.380;2023-07-29T04:34:21;3.00;;;2.50;;
39300;SDS011;25019;42.626;23.380;2023-07-29T04:36:46;2.67;;;2.47;;
39300;SDS011;25019;42.626;23.380;2023-07-29T04:39:13;2.70;;;2.50;;
39300;SDS011;25019;42.626;23.380;2023-07-29T04:41:39;2.70;;;2.50;;
39300;SDS011;25019;42.626;23.380;2023-07-29T04:44:05;2.67;;;2.47;;
39300;SDS011;25019;42.626;23.380;2023-07-29T04:46:31;2.63;;;2.43;;
39300;SDS011;25019;42.626;23.380;2023-07-29T04:48:57;3.30;;;2.40;;
39300;SDS011;25019;42.626;23.380;2023-07-29T04:51:23;3.07;;;2.70;;
39300;SDS011;25019;42.626;23.380;2023-07-29T04:53:49;2.70;;;2.50;;
39300;SDS011;25019;42.626;23.380;2023-07-29T04:56:15;4.20;;;2.70;;
39300;SDS011;25019;42.626;23.380;2023-07-29T04:58:41;2.70;;;2.50;;
39300;SDS011;25019;42.626;23.380;2023-07-29T05:01:07;3.67;;;2.73;;
39300;SDS011;25019;42.626;23.380;2023-07-29T05:03:33;2.63;;;2.43;;
39300;SDS011;25019;42.626;23.380;2023-07-29T05:06:00;3.83;;;2.57;;
39300;SDS011;25019;42.626;23.380;2023-07-29T05:08:27;3.23;;;2.80;;
39300;SDS011;25019;42.626;23.380;2023-07-29T05:10:52;3.13;;;2.83;;
39300;SDS011;25019;42.626;23.380;2023-07-29T05:13:22;3.13;;;2.83;;
39300;SDS011;25019;42.626;23.380;2023-07-29T05:15:48;2.80;;;2.60;;
39300;SDS011;25019;42.626;23.380;2023-07-29T05:18:15;5.03;;;2.83;;
39300;SDS011;25019;42.626;23.380;2023-07-29T05:20:41;2.53;;;2.33;;
39300;SDS011;25019;42.626;23.380;2023-07-29T05:23:07;3.37;;;2.73;;
39300;SDS011;25019;42.626;23.380;2023-07-29T05:25:33;2.80;;;2.60;;
39300;SDS011;25019;42.626;23.380;2023-07-29T05:28:00;2.77;;;2.50;;
39300;SDS011;25019;42.626;23.380;2023-07-29T05:30:26;4.10;;;2.60;;
39300;SDS011;25019;42.626;23.380;2023-07-29T05:32:56;3.87;;;3.00;;
39300;SDS011;25019;42.626;23.380;2023-07-29T05:35:22;5.33;;;4.60;;
39300;SDS011;25019;42.626;23.380;2023-07-29T05:37:48;7.87;;;5.37;;
39300;SDS011;25019;42.626;23.380;2023-07-29T05:40:14;7.67;;;6.77;;
39300;SDS011;25019;42.626;23.380;2023-07-29T05:42:39;12.20;;;9.63;;
39300;SDS011;25019;42.626;23.380;2023-07-29T05:45:05;3.05;;;2.78;;
39300;SDS011;25019;42.626;23.380;2023-07-29T05:47:31;5.03;;;3.67;;
39300;SDS011;25019;42.626;23.380;2023-07-29T05:49:57;7.85;;;5.78;;
39300;SDS011;25019;42.626;23.380;2023-07-29T05:52:23;6.38;;;4.07;;
39300;SDS011;25019;42.626;23.380;2023-07-29T05:54:49;6.40;;;3.42;;
39300;SDS011;25019;42.626;23.380;2023-07-29T05:57:14;3.92;;;3.17;;
39300;SDS011;25019;42.626;23.380;2023-07-29T05:59:40;3.65;;;3.05;;
39300;SDS011;25019;42.626;23.380;2023-07-29T06:02:05;3.57;;;3.27;;
39300;SDS011;25019;42.626;23.380;2023-07-29T06:04:31;4.55;;;2.90;;
39300;SDS011;25019;42.626;23.380;2023-07-29T06:06:57;5.85;;;4.50;;
39300;SDS011;25019;42.626;23.380;2023-07-29T06:09:22;4.55;;;3.40;;
39300;SDS011;25019;42.626;23.380;2023-07-29T06:11:48;3.42;;;3.05;;
39300;SDS011;25019;42.626;23.380;2023-07-29T06:14:14;5.25;;;3.10;;
39300;SDS011;25019;42.626;23.380;2023-07-29T06:16:40;4.10;;;2.80;;
39300;SDS011;25019;42.626;23.380;2023-07-29T06:19:06;5.10;;;2.70;;
39300;SDS011;25019;42.626;23.380;2023-07-29T06:21:34;4.00;;;2.90;;
39300;SDS011;25019;42.626;23.380;2023-07-29T06:24:00;4.05;;;3.45;;
39300;SDS011;25019;42.626;23.380;2023-07-29T06:26:26;4.70;;;4.30;;
39300;SDS011;25019;42.626;23.380;2023-07-29T06:28:52;4.40;;;4.00;;
39300;SDS011;25019;42.626;23.380;2023-07-29T06:31:18;4.07;;;3.67;;
39300;SDS011;25019;42.626;23.380;2023-07-29T06:33:43;4.47;;;3.80;;
39300;SDS011;25019;42.626;23.380;2023-07-29T06:36:09;5.60;;;4.15;;
39300;SDS011;25019;42.626;23.380;2023-07-29T06:38:35;5.57;;;2.95;;
39300;SDS011;25019;42.626;23.380;2023-07-29T06:41:02;3.93;;;2.60;;
39300;SDS011;25019;42.626;23.380;2023-07-29T06:43:27;3.83;;;2.90;;
39300;SDS011;25019;42.626;23.380;2023-07-29T06:45:53;3.60;;;2.77;;
39300;SDS011;25019;42.626;23.380;2023-07-29T06:48:19;3.13;;;2.83;;
39300;SDS011;25019;42.626;23.380;2023-07-29T06:50:45;4.73;;;3.00;;
39300;SDS011;25019;42.626;23.380;2023-07-29T06:53:11;3.73;;;2.90;;
39300;SDS011;25019;42.626;23.380;2023-07-29T06:55:37;3.13;;;2.83;;
39300;SDS011;25019;42.626;23.380;2023-07-29T06:58:02;3.70;;;2.47;;
39300;SDS011;25019;42.626;23.380;2023-07-29T07:00:28;4.37;;;2.67;;
39300;SDS011;25019;42.626;23.380;2023-07-29T07:02:54;2.63;;;2.43;;
39300;SDS011;25019;42.626;23.380;2023-07-29T07:05:19;4.43;;;2.90;;
39300;SDS011;25019;42.626;23.380;2023-07-29T07:07:45;4.03;;;3.07;;
39300;SDS011;25019;42.626;23.380;2023-07-29T07:10:11;3.53;;;2.80;;
39300;SDS011;25019;42.626;23.380;2023-07-29T07:12:36;3.70;;;2.97;;
39300;SDS011;25019;42.626;23.380;2023-07-29T07:15:02;7.00;;;3.20;;
39300;SDS011;25019;42.626;23.380;2023-07-29T07:17:28;5.30;;;3.50;;
39300;SDS011;25019;42.626;23.380;2023-07-29T07:19:53;3.40;;;3.10;;
39300;SDS011;25019;42.626;23.380;2023-07-29T07:22:19;8.37;;;7.00;;
39300;SDS011;25019;42.626;23.380;2023-07-29T07:24:45;20.70;;;17.30;;
39300;SDS011;25019;42.626;23.380;2023-07-29T07:27:11;7.20;;;4.87;;
39300;SDS011;25019;42.626;23.380;2023-07-29T07:29:36;10.30;;;7.37;;
39300;SDS011;25019;42.626;23.380;2023-07-29T07:32:02;5.47;;;3.40;;
39300;SDS011;25019;42.626;23.380;2023-07-29T07:34:28;6.20;;;4.63;;
39300;SDS011;25019;42.626;23.380;2023-07-29T07:36:54;6.60;;;5.13;;
39300;SDS011;25019;42.626;23.380;2023-07-29T07:39:19;4.33;;;3.93;;
39300;SDS011;25019;42.626;23.380;2023-07-29T07:41:45;5.47;;;4.77;;
39300;SDS011;25019;42.626;23.380;2023-07-29T07:44:11;5.23;;;3.80;;
39300;SDS011;25019;42.626;23.380;2023-07-29T07:46:40;7.20;;;3.67;;
39300;SDS011;25019;42.626;23.380;2023-07-29T07:49:06;7.63;;;4.97;;
39300;SDS011;25019;42.626;23.380;2023-07-29T07:51:32;5.73;;;3.70;;
39300;SDS011;25019;42.626;23.380;2023-07-29T07:53:58;7.83;;;5.77;;
39300;SDS011;25019;42.626;23.380;2023-07-29T07:56:24;4.13;;;3.03;;
39300;SDS011;25019;42.626;23.380;2023-07-29T07:58:50;5.40;;;3.10;;
39300;SDS011;25019;42.626;23.380;2023-07-29T08:01:15;6.10;;;3.37;;
39300;SDS011;25019;42.626;23.380;2023-07-29T08:03:41;4.80;;;3.33;;
39300;SDS011;25019;42.626;23.380;2023-07-29T08:06:06;5.57;;;3.20;;
39300;SDS011;25019;42.626;23.380;2023-07-29T08:08:32;5.97;;;3.40;;
39300;SDS011;25019;42.626;23.380;2023-07-29T08:10:58;11.33;;;9.60;;
39300;SDS011;25019;42.626;23.380;2023-07-29T08:13:23;5.60;;;3.27;;
39300;SDS011;25019;42.626;23.380;2023-07-29T08:15:50;6.80;;;4.50;;
39300;SDS011;25019;42.626;23.380;2023-07-29T08:18:17;5.57;;;4.73;;
39300;SDS011;25019;42.626;23.380;2023-07-29T08:20:53;3.80;;;3.13;;
39300;SDS011;25019;42.626;23.380;2023-07-29T08:23:24;5.77;;;4.47;;
39300;SDS011;25019;42.626;23.380;2023-07-29T08:25:51;7.80;;;5.70;;
39300;SDS011;25019;42.626;23.380;2023-07-29T08:28:18;11.10;;;6.90;;
39300;SDS011;25019;42.626;23.380;2023-07-29T08:30:44;6.93;;;3.40;;
39300;SDS011;25019;42.626;23.380;2023-07-29T08:33:09;8.43;;;3.17;;
39300;SDS011;25019;42.626;23.380;2023-07-29T08:35:35;4.50;;;3.47;;
39300;SDS011;25019;42.626;23.380;2023-07-29T08:38:01;7.40;;;3.60;;
39300;SDS011;25019;42.626;23.380;2023-07-29T08:40:29;4.27;;;3.10;;
39300;SDS011;25019;42.626;23.380;2023-07-29T08:42:57;4.10;;;2.73;;
39300;SDS011;25019;42.626;23.380;2023-07-29T08:45:24;4.47;;;2.70;;
39300;SDS011;25019;42.626;23.380;2023-07-29T08:47:51;3.63;;;2.63;;
39300;SDS011;25019;42.626;23.380;2023-07-29T08:50:24;3.83;;;3.20;;
39300;SDS011;25019;42.626;23.380;2023-07-29T08:52:50;5.57;;;3.13;;
39300;SDS011;25019;42.626;23.380;2023-07-29T08:55:18;5.67;;;3.00;;
39300;SDS011;25019;42.626;23.380;2023-07-29T08:57:44;3.67;;;2.67;;
39300;SDS011;25019;42.626;23.380;2023-07-29T09:00:11;2.73;;;2.50;;
39300;SDS011;25019;42.626;23.380;2023-07-29T09:02:38;4.20;;;2.90;;
39300;SDS011;25019;42.626;23.380;2023-07-29T09:05:03;5.50;;;2.33;;
39300;SDS011;25019;42.626;23.380;2023-07-29T09:07:30;4.23;;;3.33;;
39300;SDS011;25019;42.626;23.380;2023-07-29T09:09:59;4.60;;;2.77;;
39300;SDS011;25019;42.626;23.380;2023-07-29T09:12:24;3.97;;;2.87;;
39300;SDS011;25019;42.626;23.380;2023-07-29T09:14:51;2.93;;;2.60;;
39300;SDS011;25019;42.626;23.380;2023-07-29T09:17:18;5.27;;;2.40;;
39300;SDS011;25019;42.626;23.380;2023-07-29T09:19:49;3.87;;;2.30;;
39300;SDS011;25019;42.626;23.380;2023-07-29T09:22:19;3.10;;;2.27;;
39300;SDS011;25019;42.626;23.380;2023-07-29T09:24:46;2.83;;;1.87;;
39300;SDS011;25019;42.626;23.380;2023-07-29T09:27:27;3.90;;;2.40;;
39300;SDS011;25019;42.626;23.380;2023-07-29T09:29:55;1.97;;;1.77;;
39300;SDS011;25019;42.626;23.380;2023-07-29T09:32:21;2.07;;;1.60;;
39300;SDS011;25019;42.626;23.380;2023-07-29T09:34:48;2.40;;;1.87;;
39300;SDS011;25019;42.626;23.380;2023-07-29T09:37:17;1.90;;;1.70;;
39300;SDS011;25019;42.626;23.380;2023-07-29T09:39:47;3.47;;;1.50;;
39300;SDS011;25019;42.626;23.380;2023-07-29T09:42:20;2.13;;;1.70;;
39300;SDS011;25019;42.626;23.380;2023-07-29T09:44:48;4.77;;;2.93;;
39300;SDS011;25019;42.626;23.380;2023-07-29T09:47:21;6.47;;;2.50;;
39300;SDS011;25019;42.626;23.380;2023-07-29T09:49:48;6.33;;;3.13;;
39300;SDS011;25019;42.626;23.380;2023-07-29T09:52:18;5.80;;;3.13;;
39300;SDS011;25019;42.626;23.380;2023-07-29T09:54:45;1.80;;;1.70;;
39300;SDS011;25019;42.626;23.380;2023-07-29T09:57:16;4.27;;;2.97;;
39300;SDS011;25019;42.626;23.380;2023-07-29T09:59:43;4.90;;;1.90;;
39300;SDS011;25019;42.626;23.380;2023-07-29T10:02:10;3.00;;;1.93;;
39300;SDS011;25019;42.626;23.380;2023-07-29T10:04:41;3.60;;;2.43;;
39300;SDS011;25019;42.626;23.380;2023-07-29T10:07:09;3.03;;;2.00;;
39300;SDS011;25019;42.626;23.380;2023-07-29T10:09:36;1.70;;;1.30;;
39300;SDS011;25019;42.626;23.380;2023-07-29T10:12:04;1.90;;;1.70;;
39300;SDS011;25019;42.626;23.380;2023-07-29T10:14:31;2.20;;;1.20;;
39300;SDS011;25019;42.626;23.380;2023-07-29T10:16:57;2.90;;;2.30;;
39300;SDS011;25019;42.626;23.380;2023-07-29T10:19:25;6.83;;;3.73;;
39300;SDS011;25019;42.626;23.380;2023-07-29T10:21:51;3.40;;;2.27;;
39300;SDS011;25019;42.626;23.380;2023-07-29T10:24:22;3.07;;;2.23;;
39300;SDS011;25019;42.626;23.380;2023-07-29T10:26:57;3.10;;;1.50;;
39300;SDS011;25019;42.626;23.380;2023-07-29T10:29:24;1.30;;;1.20;;
39300;SDS011;25019;42.626;23.380;2023-07-29T10:31:53;2.90;;;1.23;;
39300;SDS011;25019;42.626;23.380;2023-07-29T10:34:22;1.30;;;1.20;;
39300;SDS011;25019;42.626;23.380;2023-07-29T10:36:49;2.47;;;1.07;;
39300;SDS011;25019;42.626;23.380;2023-07-29T10:39:16;1.20;;;1.03;;
39300;SDS011;25019;42.626;23.380;2023-07-29T10:41:54;1.40;;;0.80;;
39300;SDS011;25019;42.626;23.380;2023-07-29T10:47:15;1.47;;;1.10;;
39300;SDS011;25019;42.626;23.380;2023-07-29T10:49:46;2.73;;;1.30;;
39300;SDS011;25019;42.626;23.380;2023-07-29T10:52:27;2.07;;;1.20;;
39300;SDS011;25019;42.626;23.380;2023-07-29T10:54:54;3.33;;;1.40;;
39300;SDS011;25019;42.626;23.380;2023-07-29T10:57:34;2.67;;;1.27;;
39300;SDS011;25019;42.626;23.380;2023-07-29T11:00:00;0.87;;;0.87;;
39300;SDS011;25019;42.626;23.380;2023-07-29T11:02:29;1.33;;;1.10;;
39300;SDS011;25019;42.626;23.380;2023-07-29T11:04:58;1.10;;;1.00;;
39300;SDS011;25019;42.626;23.380;2023-07-29T11:07:25;1.93;;;1.40;;
39300;SDS011;25019;42.626;23.380;2023-07-29T11:12:38;1.97;;;1.30;;
39300;SDS011;25019;42.626;23.380;2023-07-29T11:17:37;2.07;;;1.10;;
39300;SDS011;25019;42.626;23.380;2023-07-29T11:20:05;1.17;;;1.07;;
39300;SDS011;25019;42.626;23.380;2023-07-29T11:22:32;1.33;;;1.23;;
39300;SDS011;25019;42.626;23.380;2023-07-29T11:24:58;2.60;;;1.50;;
39300;SDS011;25019;42.626;23.380;2023-07-29T11:27:24;1.97;;;1.50;;
39300;SDS011;25019;42.626;23.380;2023-07-29T11:29:49;4.20;;;1.20;;
39300;SDS011;25019;42.626;23.380;2023-07-29T11:32:15;1.40;;;1.30;;
39300;SDS011;25019;42.626;23.380;2023-07-29T11:34:42;1.20;;;1.10;;
39300;SDS011;25019;42.626;23.380;2023-07-29T11:37:11;2.17;;;1.00;;
39300;SDS011;25019;42.626;23.380;2023-07-29T11:39:43;1.30;;;1.20;;
39300;SDS011;25019;42.626;23.380;2023-07-29T11:42:16;1.33;;;1.00;;
39300;SDS011;25019;42.626;23.380;2023-07-29T11:44:42;1.50;;;1.00;;
39300;SDS011;25019;42.626;23.380;2023-07-29T11:47:11;2.73;;;1.53;;
39300;SDS011;25019;42.626;23.380;2023-07-29T11:49:40;2.93;;;1.30;;
39300;SDS011;25019;42.626;23.380;2023-07-29T11:52:07;3.00;;;1.80;;
39300;SDS011;25019;42.626;23.380;2023-07-29T11:54:37;2.70;;;1.53;;
39300;SDS011;25019;42.626;23.380;2023-07-29T11:57:10;2.30;;;2.10;;
39300;SDS011;25019;42.626;23.380;2023-07-29T11:59:37;1.70;;;1.60;;
39300;SDS011;25019;42.626;23.380;2023-07-29T12:02:08;2.97;;;2.40;;
39300;SDS011;25019;42.626;23.380;2023-07-29T12:04:37;1.77;;;1.23;;
39300;SDS011;25019;42.626;23.380;2023-07-29T12:07:04;2.83;;;2.53;;
39300;SDS011;25019;42.626;23.380;2023-07-29T12:09:30;1.77;;;1.67;;
39300;SDS011;25019;42.626;23.380;2023-07-29T12:11:56;2.03;;;1.83;;
39300;SDS011;25019;42.626;23.380;2023-07-29T12:14:25;1.90;;;1.80;;
39300;SDS011;25019;42.626;23.380;2023-07-29T12:16:54;1.83;;;1.70;;
39300;SDS011;25019;42.626;23.380;2023-07-29T12:19:20;2.10;;;1.60;;
39300;SDS011;25019;42.626;23.380;2023-07-29T12:21:47;2.13;;;1.90;;
39300;SDS011;25019;42.626;23.380;2023-07-29T12:24:14;2.17;;;1.87;;
39300;SDS011;25019;42.626;23.380;2023-07-29T12:26:40;3.73;;;0.97;;
39300;SDS011;25019;42.626;23.380;2023-07-29T12:31:39;1.87;;;1.67;;
39300;SDS011;25019;42.626;23.380;2023-07-29T12:34:05;1.30;;;1.13;;
39300;SDS011;25019;42.626;23.380;2023-07-29T12:36:50;3.13;;;1.00;;
39300;SDS011;25019;42.626;23.380;2023-07-29T12:39:17;1.10;;;0.97;;
39300;SDS011;25019;42.626;23.380;2023-07-29T12:41:49;1.60;;;1.40;;
39300;SDS011;25019;42.626;23.380;2023-07-29T12:44:16;1.33;;;0.80;;
39300;SDS011;25019;42.626;23.380;2023-07-29T12:46:42;4.27;;;1.20;;
39300;SDS011;25019;42.626;23.380;2023-07-29T12:49:08;2.63;;;1.37;;
39300;SDS011;25019;42.626;23.380;2023-07-29T12:51:34;2.10;;;1.20;;
39300;SDS011;25019;42.626;23.380;2023-07-29T12:54:01;1.10;;;1.00;;
39300;SDS011;25019;42.626;23.380;2023-07-29T12:56:28;1.70;;;1.30;;
39300;SDS011;25019;42.626;23.380;2023-07-29T12:58:56;1.33;;;1.17;;
39300;SDS011;25019;42.626;23.380;2023-07-29T13:01:22;1.80;;;1.00;;
39300;SDS011;25019;42.626;23.380;2023-07-29T13:03:48;1.43;;;1.33;;
39300;SDS011;25019;42.626;23.380;2023-07-29T13:06:14;1.20;;;1.10;;
39300;SDS011;25019;42.626;23.380;2023-07-29T13:08:41;1.00;;;0.90;;
39300;SDS011;25019;42.626;23.380;2023-07-29T13:11:07;1.20;;;1.10;;
39300;SDS011;25019;42.626;23.380;2023-07-29T13:13:33;1.30;;;1.00;;
39300;SDS011;25019;42.626;23.380;2023-07-29T13:15:59;1.10;;;1.00;;
39300;SDS011;25019;42.626;23.380;2023-07-29T13:18:25;2.23;;;1.57;;
39300;SDS011;25019;42.626;23.380;2023-07-29T13:20:50;2.80;;;1.70;;
39300;SDS011;25019;42.626;23.380;2023-07-29T13:23:16;1.73;;;1.60;;
39300;SDS011;25019;42.626;23.380;2023-07-29T13:25:42;1.50;;;1.40;;
39300;SDS011;25019;42.626;23.380;2023-07-29T13:28:11;2.93;;;1.40;;
39300;SDS011;25019;42.626;23.380;2023-07-29T13:30:38;1.67;;;1.57;;
39300;SDS011;25019;42.626;23.380;2023-07-29T13:33:06;2.10;;;1.40;;
39300;SDS011;25019;42.626;23.380;2023-07-29T13:35:32;3.43;;;1.40;;
39300;SDS011;25019;42.626;23.380;2023-07-29T13:37:58;1.77;;;1.47;;
39300;SDS011;25019;42.626;23.380;2023-07-29T13:40:24;2.70;;;2.30;;
39300;SDS011;25019;42.626;23.380;2023-07-29T13:42:50;4.40;;;2.43;;
39300;SDS011;25019;42.626;23.380;2023-07-29T13:45:17;1.83;;;1.40;;
39300;SDS011;25019;42.626;23.380;2023-07-29T13:47:43;2.33;;;1.43;;
39300;SDS011;25019;42.626;23.380;2023-07-29T13:50:09;2.17;;;1.50;;
39300;SDS011;25019;42.626;23.380;2023-07-29T13:52:36;2.23;;;1.70;;
39300;SDS011;25019;42.626;23.380;2023-07-29T13:55:02;2.37;;;1.60;;
39300;SDS011;25019;42.626;23.380;2023-07-29T13:57:29;1.63;;;1.53;;
39300;SDS011;25019;42.626;23.380;2023-07-29T13:59:54;1.93;;;1.73;;
39300;SDS011;25019;42.626;23.380;2023-07-29T14:02:20;1.57;;;1.47;;
39300;SDS011;25019;42.626;23.380;2023-07-29T14:04:46;2.23;;;1.70;;
39300;SDS011;25019;42.626;23.380;2023-07-29T14:07:12;1.73;;;1.60;;
39300;SDS011;25019;42.626;23.380;2023-07-29T14:09:38;2.60;;;1.50;;
39300;SDS011;25019;42.626;23.380;2023-07-29T14:12:04;1.83;;;1.23;;
39300;SDS011;25019;42.626;23.380;2023-07-29T14:14:30;1.73;;;1.57;;
39300;SDS011;25019;42.626;23.380;2023-07-29T14:16:56;3.13;;;2.00;;
39300;SDS011;25019;42.626;23.380;2023-07-29T14:19:22;5.00;;;2.00;;
39300;SDS011;25019;42.626;23.380;2023-07-29T14:21:48;2.23;;;1.50;;
39300;SDS011;25019;42.626;23.380;2023-07-29T14:24:14;2.07;;;1.70;;
39300;SDS011;25019;42.626;23.380;2023-07-29T14:26:40;1.80;;;1.40;;
39300;SDS011;25019;42.626;23.380;2023-07-29T14:29:06;2.53;;;2.07;;
39300;SDS011;25019;42.626;23.380;2023-07-29T14:31:32;1.97;;;1.73;;
39300;SDS011;25019;42.626;23.380;2023-07-29T14:33:58;2.17;;;1.77;;
39300;SDS011;25019;42.626;23.380;2023-07-29T14:36:25;2.23;;;1.87;;
39300;SDS011;25019;42.626;23.380;2023-07-29T14:38:50;2.53;;;1.80;;
39300;SDS011;25019;42.626;23.380;2023-07-29T14:41:16;2.33;;;1.77;;
39300;SDS011;25019;42.626;23.380;2023-07-29T14:43:42;2.23;;;1.93;;
39300;SDS011;25019;42.626;23.380;2023-07-29T14:46:08;2.40;;;2.20;;
39300;SDS011;25019;42.626;23.380;2023-07-29T14:48:33;2.07;;;1.87;;
39300;SDS011;25019;42.626;23.380;2023-07-29T14:50:59;2.57;;;1.50;;